Аэропорт: Днепропетровск. Днепропетровск

ICAO: UKDD

METAR:
2018/05/20 23:30
UKDD 202330Z 34004MPS 9999 BKN014 13/13 Q1015 R26/210370 NOSIG
METAR:
2018/05/20 18:06
TAF UKDD 201702Z 2018/2118 34005MPS 9999 SCT020 BKN025CB 
      TEMPO 2018/2100 3100 -SHRA BKN015 BKN020CB 
      TEMPO 2100/2106 1100 BR BKN003